Hlavní strana
METAR-TAF:

METAR-TAF

Letiště :

Ciudad de Panamá, Panama

zeměpisná šířka: 08-59N, zeměpisná délka: 079-31W, výška: 13 m

Aktuální stav počasí

Zpráva byla vytvořena před 28 minutami, v 23:00 UTC
Severozápadní vítr 8 kt
Teplota 27°C
Vlhkost vzduchu 84%
Tlak 1008 hPa
Viditelnost 10 km a více
Skoro jasno ve výšce 1800 ft

METAR: MPMG 152300Z 31008KT 9999 FEW018 27/24 Q1008 NOSIG

Čas: 18:28 (23:28 UTC)

Předpověď počasí

Zpráva byla vytvořena před 6 hodinami a 28 minutami, v 17:00 UTC
Předpověď platná od 15 v 18 UTC do 16 v 06 UTC
Severozápadní vítr 4 kt
Viditelnost 10 km a více
Polojasno ve výšce 1600 ft
Polojasno ve výšce 9000 ft
Dočasný
od 15 v 18 UTC do 15 v 22 UTC
Jižní vítr 6 kt
Viditelnost: 6000 m
Polojasno ve výšce 1500 ft, Cumulonimbus.
Oblačno až skoro zataženo ve výšce 8000 ft
bouřka, déšť

TAF: MPMG 151700Z 1518/1606 32004KT 9999 SCT016 SCT090 TEMPO 1518/1522 17006KT 6000 TSRA SCT015CB BKN080

Stav a předpovědi počasí z více než 4 000 letišť (zprávy METAR a TAF).

Červené a žluté tečky na mapě představují dostupné meteorologické stanice.

Když kurzor umístíte na tečku, zobrazí se název stanice.

Pak kliknutím zobrazíte stav a předpověď počasí.

Chcete-li změnit mapu, kliknutím na zelené tlačítko se znaménkem +mapu přiblížíte, kliknutím na zelené tlačítko se znaménkem – mapu oddálíte a kliknutím na zelené šipky přejdete na sousední mapy.


METAR-TAF: